createdAt,value
2022-10-10T00:02:48.139Z,1014.519
2022-10-10T00:12:53.716Z,1014.573
2022-10-10T00:17:55.963Z,1014.449
2022-10-10T00:22:58.730Z,1014.505
2022-10-10T00:33:04.168Z,1014.286
2022-10-10T00:38:06.749Z,1014.329
2022-10-10T00:43:09.441Z,1014.19
2022-10-10T00:48:15.440Z,1014.19
2022-10-10T00:53:18.306Z,1014.157
2022-10-10T00:58:25.083Z,1014.131
2022-10-10T01:03:27.721Z,1014.047
2022-10-10T01:18:36.021Z,1013.864
2022-10-10T01:23:38.599Z,1013.857
2022-10-10T01:28:41.490Z,1013.738
2022-10-10T01:33:44.351Z,1013.634
2022-10-10T01:38:47.015Z,1013.642
2022-10-10T01:43:49.700Z,1013.635
2022-10-10T01:48:52.648Z,1013.646
2022-10-10T01:53:55.003Z,1013.497
2022-10-10T01:58:57.781Z,1013.419
2022-10-10T02:09:03.001Z,1013.375
2022-10-10T02:14:05.574Z,1013.351
2022-10-10T02:19:08.272Z,1013.375
2022-10-10T02:29:17.488Z,1013.175
2022-10-10T02:34:20.139Z,1013.134
2022-10-10T02:39:22.766Z,1013.006
2022-10-10T02:44:25.560Z,1013.106
2022-10-10T02:49:28.252Z,1012.984
2022-10-10T02:54:30.953Z,1012.953
2022-10-10T02:59:36.337Z,1012.893
2022-10-10T03:04:39.047Z,1012.878
2022-10-10T03:09:41.688Z,1012.748
2022-10-10T03:14:44.266Z,1012.661
2022-10-10T03:19:47.103Z,1012.605
2022-10-10T03:24:49.777Z,1012.61
2022-10-10T03:29:52.408Z,1012.549
2022-10-10T03:34:55.221Z,1012.445
2022-10-10T03:39:57.683Z,1012.381
2022-10-10T03:45:00.605Z,1012.379
2022-10-10T03:50:03.043Z,1012.372
2022-10-10T03:55:05.659Z,1012.252
2022-10-10T04:00:08.375Z,1012.197
2022-10-10T04:05:11.253Z,1012.124
2022-10-10T04:10:13.850Z,1012.13
2022-10-10T04:15:16.508Z,1011.983
2022-10-10T04:20:19.071Z,1011.932
2022-10-10T04:25:21.591Z,1011.844
2022-10-10T04:30:24.182Z,1011.753
2022-10-10T04:35:26.806Z,1011.647
2022-10-10T04:40:29.547Z,1011.586
2022-10-10T04:45:36.643Z,1011.472
2022-10-10T04:50:34.537Z,1011.454
2022-10-10T04:55:37.228Z,1011.449
2022-10-10T05:00:39.966Z,1011.279
2022-10-10T05:05:42.503Z,1011.225
2022-10-10T05:10:45.112Z,1011.028
2022-10-10T05:15:47.858Z,1011.09
2022-10-10T05:20:50.513Z,1010.964
2022-10-10T05:25:53.305Z,1010.89
2022-10-10T05:30:56.049Z,1010.854
2022-10-10T05:35:58.592Z,1010.953
2022-10-10T05:41:01.296Z,1010.96
2022-10-10T05:46:03.943Z,1010.903
2022-10-10T05:51:06.514Z,1010.924
2022-10-10T05:56:09.374Z,1010.993
2022-10-10T06:01:11.717Z,1010.896
2022-10-10T06:06:14.367Z,1010.876
2022-10-10T06:11:17.204Z,1010.837
2022-10-10T06:16:20.148Z,1010.812
2022-10-10T06:21:22.802Z,1010.783
2022-10-10T06:26:25.453Z,1010.846
2022-10-10T06:31:28.034Z,1010.74
2022-10-10T06:36:30.691Z,1010.803
2022-10-10T06:41:33.767Z,1010.791
2022-10-10T06:46:37.014Z,1010.748
2022-10-10T06:51:39.801Z,1010.799
2022-10-10T06:56:42.656Z,1010.698
2022-10-10T07:01:45.598Z,1010.594
2022-10-10T07:06:48.272Z,1010.625
2022-10-10T07:11:50.905Z,1010.563
2022-10-10T07:16:53.921Z,1010.435
2022-10-10T07:21:56.568Z,1010.507
2022-10-10T07:27:05.001Z,1010.56
2022-10-10T07:32:01.984Z,1010.555
2022-10-10T07:37:04.693Z,1010.505
2022-10-10T07:42:07.619Z,1010.514
2022-10-10T07:47:10.341Z,1010.505
2022-10-10T08:02:18.812Z,1010.443
2022-10-10T08:12:24.184Z,1010.442
2022-10-10T08:17:27.199Z,1010.346
2022-10-10T08:22:30.091Z,1010.242
2022-10-10T08:27:33.246Z,1010.254
2022-10-10T08:37:38.658Z,1010.177
2022-10-10T08:42:47.049Z,1010.191
2022-10-10T08:47:43.967Z,1010.23
2022-10-10T08:52:46.597Z,1010.143
2022-10-10T08:57:49.263Z,1010.093
2022-10-10T09:07:57.332Z,1009.93
2022-10-10T09:12:59.918Z,1009.931
2022-10-10T09:18:02.537Z,1009.858
2022-10-10T09:23:05.666Z,1009.826
2022-10-10T09:28:14.295Z,1009.793
2022-10-10T09:33:17.554Z,1009.854
2022-10-10T09:38:19.971Z,1009.726
2022-10-10T09:43:22.771Z,1009.697
2022-10-10T09:48:25.722Z,1009.513
2022-10-10T09:58:30.970Z,1009.511
2022-10-10T10:03:33.699Z,1009.572
2022-10-10T10:08:36.169Z,1009.672
2022-10-10T10:13:38.771Z,1009.595
2022-10-10T10:18:41.797Z,1009.621
2022-10-10T10:23:44.750Z,1009.536
2022-10-10T10:28:47.582Z,1009.405
2022-10-10T10:33:50.199Z,1009.355
2022-10-10T10:38:53.091Z,1009.419
2022-10-10T10:43:55.846Z,1009.352
2022-10-10T10:48:58.464Z,1009.331
2022-10-10T10:54:01.134Z,1009.294
2022-10-10T11:04:15.923Z,1009.088
2022-10-10T11:09:13.630Z,1009.041
2022-10-10T11:14:12.117Z,1009.107
2022-10-10T11:19:14.883Z,1009.036
2022-10-10T11:24:17.423Z,1008.895
2022-10-10T11:29:20.354Z,1008.852
2022-10-10T11:34:22.944Z,1008.777
2022-10-10T11:39:28.865Z,1008.807
2022-10-10T11:44:32.194Z,1008.766
2022-10-10T11:49:34.598Z,1008.704
2022-10-10T11:59:39.657Z,1008.617
2022-10-10T12:04:42.460Z,1008.63
2022-10-10T12:09:45.337Z,1008.632
2022-10-10T12:14:48.059Z,1008.517
2022-10-10T12:19:50.597Z,1008.498
2022-10-10T12:24:53.671Z,1008.445
2022-10-10T12:29:56.595Z,1008.467
2022-10-10T12:34:59.302Z,1008.481
2022-10-10T12:40:01.953Z,1008.534
2022-10-10T12:45:04.555Z,1008.507
2022-10-10T12:50:07.356Z,1008.47
2022-10-10T12:55:10.427Z,1008.5
2022-10-10T13:00:12.903Z,1008.309
2022-10-10T13:05:15.642Z,1008.245
2022-10-10T13:10:18.176Z,1008.284
2022-10-10T13:15:20.968Z,1008.178
2022-10-10T13:20:23.836Z,1008.17
2022-10-10T13:25:26.309Z,1008.107
2022-10-10T13:30:28.915Z,1008.16
2022-10-10T13:35:32.356Z,1008.049
2022-10-10T13:40:34.905Z,1008.161
2022-10-10T13:45:37.599Z,1008.054
2022-10-10T13:50:40.366Z,1008.101
2022-10-10T13:55:43.470Z,1007.995
2022-10-10T14:00:46.206Z,1007.954
2022-10-10T14:05:48.958Z,1008.014
2022-10-10T14:10:51.451Z,1007.932
2022-10-10T14:15:54.165Z,1007.982
2022-10-10T14:20:57.001Z,1007.88
2022-10-10T14:25:59.539Z,1007.885
2022-10-10T14:31:02.374Z,1007.851
2022-10-10T14:36:04.831Z,1007.819
2022-10-10T14:41:07.672Z,1007.839
2022-10-10T14:46:10.216Z,1007.713
2022-10-10T14:51:32.990Z,1007.644
2022-10-10T14:56:15.759Z,1007.623
2022-10-10T15:01:18.472Z,1007.659
2022-10-10T15:06:21.603Z,1007.61
2022-10-10T15:11:24.385Z,1007.6
2022-10-10T15:16:27.141Z,1007.712
2022-10-10T15:26:32.232Z,1007.685
2022-10-10T15:31:34.866Z,1007.812
2022-10-10T15:36:37.708Z,1007.878
2022-10-10T15:41:40.492Z,1007.879
2022-10-10T15:46:43.170Z,1007.939
2022-10-10T15:51:45.725Z,1008.014
2022-10-10T15:56:48.434Z,1008.022
2022-10-10T16:01:51.301Z,1007.982
2022-10-10T16:11:56.284Z,1007.983
2022-10-10T16:17:07.740Z,1007.98
2022-10-10T16:22:10.499Z,1007.966
2022-10-10T16:32:15.701Z,1007.948
2022-10-10T16:37:18.453Z,1007.927
2022-10-10T16:42:21.011Z,1007.931
2022-10-10T16:47:23.705Z,1007.929
2022-10-10T16:52:26.506Z,1007.964
2022-10-10T16:57:29.158Z,1007.962
2022-10-10T17:02:31.884Z,1008.048
2022-10-10T17:07:34.899Z,1008.082
2022-10-10T17:12:37.381Z,1008.063
2022-10-10T17:22:42.636Z,1008.136
2022-10-10T17:27:45.352Z,1008.101
2022-10-10T17:42:53.482Z,1008.135
2022-10-10T17:47:55.949Z,1008.147
2022-10-10T17:52:58.734Z,1008.185
2022-10-10T17:58:01.323Z,1008.164
2022-10-10T18:03:08.114Z,1008.235
2022-10-10T18:13:09.522Z,1008.28
2022-10-10T18:18:12.082Z,1008.335
2022-10-10T18:28:17.185Z,1008.441
2022-10-10T18:33:22.526Z,1008.481
2022-10-10T18:43:27.454Z,1008.575
2022-10-10T18:48:30.245Z,1008.656
2022-10-10T18:53:32.885Z,1008.639
2022-10-10T18:58:35.496Z,1008.65
2022-10-10T19:03:37.855Z,1008.791
2022-10-10T19:08:40.284Z,1008.895
2022-10-10T19:13:43.161Z,1008.93
2022-10-10T19:18:45.949Z,1008.911
2022-10-10T19:23:48.370Z,1008.961
2022-10-10T19:28:51.074Z,1008.905
2022-10-10T19:33:53.618Z,1008.935
2022-10-10T19:38:56.262Z,1008.952
2022-10-10T19:49:01.805Z,1008.997
2022-10-10T19:54:04.499Z,1009.098
2022-10-10T19:59:07.189Z,1009.059
2022-10-10T20:04:10.067Z,1009.152
2022-10-10T20:09:12.702Z,1009.226
2022-10-10T20:14:15.433Z,1009.307
2022-10-10T20:19:18.264Z,1009.418
2022-10-10T20:24:21.020Z,1009.461
2022-10-10T20:29:23.745Z,1009.486
2022-10-10T20:34:26.405Z,1009.577
2022-10-10T20:39:29.302Z,1009.693
2022-10-10T20:44:31.990Z,1009.782
2022-10-10T20:49:34.837Z,1009.79
2022-10-10T20:54:37.675Z,1009.947
2022-10-10T20:59:40.386Z,1009.987
2022-10-10T21:04:43.163Z,1010.143
2022-10-10T21:09:45.899Z,1010.142
2022-10-10T21:14:48.600Z,1010.183
2022-10-10T21:19:51.344Z,1010.287
2022-10-10T21:24:53.906Z,1010.441
2022-10-10T21:29:56.706Z,1010.497
2022-10-10T21:34:59.576Z,1010.522
2022-10-10T21:40:02.282Z,1010.659
2022-10-10T21:45:04.967Z,1010.724
2022-10-10T21:50:07.660Z,1010.722
2022-10-10T21:55:10.288Z,1010.815
2022-10-10T22:00:12.929Z,1010.937
2022-10-10T22:05:15.640Z,1010.98
2022-10-10T22:10:18.194Z,1010.959
2022-10-10T22:15:21.399Z,1011.078
2022-10-10T22:20:24.095Z,1011.205
2022-10-10T22:25:26.637Z,1011.252
2022-10-10T22:30:29.368Z,1011.252
2022-10-10T22:35:32.113Z,1011.289
2022-10-10T22:40:34.660Z,1011.239
2022-10-10T22:45:37.389Z,1011.314
2022-10-10T22:50:39.948Z,1011.386
2022-10-10T22:55:42.672Z,1011.497
2022-10-10T23:00:45.262Z,1011.578
2022-10-10T23:10:51.903Z,1011.838
2022-10-10T23:15:54.507Z,1011.936
2022-10-10T23:20:57.167Z,1012.018
2022-10-10T23:26:00.233Z,1012.092
2022-10-10T23:31:02.866Z,1012.078
2022-10-10T23:36:05.959Z,1012.227
2022-10-10T23:41:07.994Z,1012.33
2022-10-10T23:46:10.668Z,1012.48
2022-10-10T23:51:13.377Z,1012.584
2022-10-10T23:56:16.109Z,1012.697
